createdAt,value
2018-04-12T00:00:39.921Z,56.30
2018-04-12T00:03:05.995Z,58.20
2018-04-12T00:05:32.016Z,58.50
2018-04-12T00:07:58.062Z,56.60
2018-04-12T00:10:24.075Z,58.17
2018-04-12T00:12:50.133Z,58.20
2018-04-12T00:15:16.111Z,58.13
2018-04-12T00:17:42.157Z,59.57
2018-04-12T00:20:08.168Z,59.93
2018-04-12T00:22:34.172Z,57.77
2018-04-12T00:25:00.199Z,60.80
2018-04-12T00:27:26.204Z,58.47
2018-04-12T00:29:52.200Z,58.90
2018-04-12T00:32:18.266Z,59.07
2018-04-12T00:34:44.253Z,57.07
2018-04-12T00:37:10.236Z,58.90
2018-04-12T00:39:36.432Z,59.57
2018-04-12T00:42:02.413Z,54.10
2018-04-12T00:44:35.433Z,56.57
2018-04-12T00:47:01.516Z,55.97
2018-04-12T00:49:27.649Z,58.67
2018-04-12T00:51:53.632Z,55.07
2018-04-12T00:54:19.628Z,61.10
2018-04-12T00:56:45.671Z,61.13
2018-04-12T00:59:12.479Z,60.50
2018-04-12T01:01:38.508Z,59.90
2018-04-12T01:04:04.557Z,63.60
2018-04-12T01:06:30.605Z,62.20
2018-04-12T01:08:56.604Z,61.87
2018-04-12T01:11:22.609Z,60.30
2018-04-12T01:13:48.661Z,61.53
2018-04-12T01:16:14.744Z,62.28
2018-04-12T01:18:40.923Z,61.67
2018-04-12T01:21:06.924Z,59.75
2018-04-12T01:23:32.901Z,62.13
2018-04-12T01:25:59.045Z,62.80
2018-04-12T01:28:25.165Z,62.53
2018-04-12T01:30:51.172Z,62.78
2018-04-12T01:33:17.173Z,62.60
2018-04-12T01:35:44.104Z,61.55
2018-04-12T01:38:10.139Z,64.13
2018-04-12T01:40:36.183Z,63.90
2018-04-12T01:43:02.241Z,65.25
2018-04-12T01:45:28.269Z,65.05
2018-04-12T01:47:54.278Z,65.10
2018-04-12T01:50:20.317Z,66.70
2018-04-12T01:52:46.376Z,65.47
2018-04-12T01:55:12.449Z,67.47
2018-04-12T01:57:38.485Z,65.12
2018-04-12T02:00:04.495Z,63.67
2018-04-12T02:02:30.505Z,62.58
2018-04-12T02:04:56.509Z,63.92
2018-04-12T02:07:22.509Z,62.35
2018-04-12T02:09:48.494Z,62.60
2018-04-12T02:12:14.490Z,62.80
2018-04-12T02:14:40.503Z,65.40
2018-04-12T02:17:06.481Z,63.28
2018-04-12T02:19:32.498Z,59.50
2018-04-12T02:21:58.494Z,61.63
2018-04-12T02:24:24.688Z,60.80
2018-04-12T02:26:50.718Z,60.05
2018-04-12T02:29:17.045Z,59.80
2018-04-12T02:31:43.734Z,59.38
2018-04-12T02:34:09.745Z,56.92
2018-04-12T02:36:35.768Z,55.70
2018-04-12T02:39:01.806Z,58.85
2018-04-12T02:41:27.844Z,55.15
2018-04-12T02:43:53.871Z,57.28
2018-04-12T02:46:19.968Z,55.67
2018-04-12T02:48:45.980Z,56.45
2018-04-12T02:51:12.001Z,56.53
2018-04-12T02:53:38.072Z,54.03
2018-04-12T02:56:04.493Z,54.95
2018-04-12T02:58:30.529Z,57.22
2018-04-12T03:00:56.626Z,53.83
2018-04-12T03:03:22.660Z,56.25
2018-04-12T03:05:48.695Z,56.22
2018-04-12T03:08:14.710Z,56.22
2018-04-12T03:10:40.751Z,55.25
2018-04-12T03:13:06.772Z,55.15
2018-04-12T03:15:33.410Z,56.50
2018-04-12T03:17:59.524Z,54.65
2018-04-12T03:20:25.525Z,54.63
2018-04-12T03:22:51.598Z,55.80
2018-04-12T03:25:17.667Z,54.67
2018-04-12T03:27:43.710Z,57.62
2018-04-12T03:30:09.734Z,54.78
2018-04-12T03:32:35.784Z,53.83
2018-04-12T03:35:01.931Z,55.65
2018-04-12T03:37:27.954Z,55.55
2018-04-12T03:39:54.030Z,55.53
2018-04-12T03:42:20.051Z,56.97
2018-04-12T03:44:46.057Z,56.58
2018-04-12T03:47:12.063Z,54.50
2018-04-12T03:49:38.112Z,58.00
2018-04-12T03:52:04.129Z,56.13
2018-04-12T03:54:30.131Z,56.55
2018-04-12T03:56:56.148Z,56.50
2018-04-12T03:59:22.201Z,57.22
2018-04-12T04:01:48.277Z,57.58
2018-04-12T04:04:14.264Z,55.95
2018-04-12T04:06:40.309Z,56.20
2018-04-12T04:09:06.336Z,57.30
2018-04-12T04:11:32.320Z,54.40
2018-04-12T04:13:58.350Z,56.37
2018-04-12T04:16:36.393Z,57.08
2018-04-12T04:19:14.583Z,55.97
2018-04-12T04:21:40.647Z,55.42
2018-04-12T04:24:06.693Z,57.78
2018-04-12T04:26:32.717Z,57.75
2018-04-12T04:28:58.969Z,54.97
2018-04-12T04:31:25.088Z,56.78
2018-04-12T04:33:51.215Z,56.95
2018-04-12T04:36:17.225Z,58.00
2018-04-12T04:38:43.434Z,60.63
2018-04-12T04:41:09.500Z,58.87
2018-04-12T04:43:35.558Z,57.00
2018-04-12T04:46:01.675Z,56.05
2018-04-12T04:48:27.731Z,57.03
2018-04-12T04:50:53.849Z,55.72
2018-04-12T04:53:20.644Z,57.17
2018-04-12T04:55:46.680Z,57.72
2018-04-12T04:58:12.672Z,55.67
2018-04-12T05:00:38.739Z,58.35
2018-04-12T05:03:04.992Z,57.65
2018-04-12T05:05:31.131Z,56.28
2018-04-12T05:07:57.222Z,55.10
2018-04-12T05:10:23.259Z,56.80
2018-04-12T05:12:49.372Z,54.83
2018-04-12T05:15:15.518Z,57.42
2018-04-12T05:17:41.656Z,56.47
2018-04-12T05:20:07.699Z,57.30
2018-04-12T05:22:33.749Z,56.33
2018-04-12T05:24:59.970Z,57.10
2018-04-12T05:27:25.967Z,57.75
2018-04-12T05:29:51.974Z,55.47
2018-04-12T05:32:17.992Z,55.95
2018-04-12T05:34:44.038Z,54.78
2018-04-12T05:37:10.559Z,56.45
2018-04-12T05:39:37.097Z,57.22
2018-04-12T05:42:03.484Z,55.35
2018-04-12T05:44:29.525Z,53.10
2018-04-12T05:46:55.552Z,55.03
2018-04-12T05:49:21.646Z,55.50
2018-04-12T05:51:47.703Z,55.45
2018-04-12T05:54:13.700Z,54.05
2018-04-12T05:56:39.829Z,54.72
2018-04-12T05:59:05.938Z,54.25
2018-04-12T06:01:31.963Z,54.17
2018-04-12T06:03:58.028Z,52.45
2018-04-12T06:06:24.141Z,53.63
2018-04-12T06:08:50.166Z,53.92
2018-04-12T06:11:16.216Z,51.83
2018-04-12T06:13:42.232Z,54.03
2018-04-12T06:16:08.315Z,51.75
2018-04-12T06:18:34.321Z,53.78
2018-04-12T06:21:00.325Z,51.22
2018-04-12T06:23:26.420Z,52.10
2018-04-12T06:25:52.792Z,51.00
2018-04-12T06:28:18.859Z,43.97
2018-04-12T06:30:44.870Z,50.83
2018-04-12T06:33:10.974Z,52.83
2018-04-12T06:35:36.967Z,50.38
2018-04-12T06:38:02.986Z,51.78
2018-04-12T06:40:29.166Z,51.47
2018-04-12T06:42:55.181Z,50.53
2018-04-12T06:45:21.307Z,49.20
2018-04-12T06:47:47.359Z,49.00
2018-04-12T06:50:13.490Z,50.70
2018-04-12T06:52:46.961Z,49.35
2018-04-12T06:55:13.729Z,48.70
2018-04-12T06:57:39.803Z,49.42
2018-04-12T07:00:05.828Z,48.78
2018-04-12T07:02:31.829Z,49.30
2018-04-12T07:04:58.628Z,43.85
2018-04-12T07:07:24.709Z,49.17
2018-04-12T07:09:51.432Z,50.83
2018-04-12T07:12:17.477Z,51.53
2018-04-12T07:14:43.494Z,48.97
2018-04-12T07:17:09.564Z,52.22
2018-04-12T07:19:36.271Z,46.65
2018-04-12T07:22:02.299Z,40.92
2018-04-12T07:24:28.333Z,47.83
2018-04-12T07:26:54.509Z,46.88
2018-04-12T07:29:20.809Z,46.08
2018-04-12T07:31:47.545Z,49.42
2018-04-12T07:34:13.673Z,48.47
2018-04-12T07:36:39.807Z,47.95
2018-04-12T07:39:06.516Z,38.70
2018-04-12T07:41:32.510Z,46.13
2018-04-12T07:43:58.633Z,48.13
2018-04-12T07:46:24.622Z,47.35
2018-04-12T07:48:50.668Z,46.00
2018-04-12T07:51:16.664Z,47.78
2018-04-12T07:53:42.712Z,47.75
2018-04-12T07:56:08.776Z,47.22
2018-04-12T07:58:34.807Z,46.47
2018-04-12T08:01:00.816Z,46.42
2018-04-12T08:03:26.910Z,46.08
2018-04-12T08:05:53.458Z,48.47
2018-04-12T08:08:19.519Z,46.73
2018-04-12T08:10:45.630Z,49.15
2018-04-12T08:13:11.645Z,47.33
2018-04-12T08:15:37.710Z,48.70
2018-04-12T08:18:03.736Z,48.87
2018-04-12T08:20:29.830Z,48.60
2018-04-12T08:22:55.927Z,46.80
2018-04-12T08:25:21.978Z,47.45
2018-04-12T08:27:48.251Z,47.45
2018-04-12T08:30:14.231Z,49.63
2018-04-12T08:32:40.584Z,47.50
2018-04-12T08:35:06.664Z,46.63
2018-04-12T08:37:32.725Z,47.40
2018-04-12T08:39:58.781Z,44.25
2018-04-12T08:42:24.774Z,46.20
2018-04-12T08:44:50.831Z,46.77
2018-04-12T08:47:16.872Z,41.22
2018-04-12T08:49:42.945Z,45.25
2018-04-12T08:52:08.982Z,46.25
2018-04-12T08:54:35.234Z,45.67
2018-04-12T08:57:01.406Z,45.25
2018-04-12T08:59:27.444Z,44.03
2018-04-12T09:01:53.484Z,43.10
2018-04-12T09:04:19.585Z,44.53
2018-04-12T09:06:45.736Z,45.38
2018-04-12T09:09:11.761Z,43.95
2018-04-12T09:11:37.796Z,38.13
2018-04-12T09:14:03.903Z,40.92
2018-04-12T09:16:30.118Z,42.40
2018-04-12T09:18:56.146Z,44.15
2018-04-12T09:21:22.193Z,43.13
2018-04-12T09:23:48.232Z,38.53
2018-04-12T09:26:14.277Z,40.92
2018-04-12T09:28:40.305Z,37.83
2018-04-12T09:31:06.399Z,41.80
2018-04-12T09:33:32.495Z,42.08
2018-04-12T09:35:58.548Z,43.08
2018-04-12T09:38:24.652Z,38.30
2018-04-12T09:40:50.737Z,41.00
2018-04-12T09:43:16.772Z,40.97
2018-04-12T09:45:42.856Z,41.35
2018-04-12T09:48:08.926Z,41.17
2018-04-12T09:50:35.072Z,42.07
2018-04-12T09:53:01.213Z,42.97
2018-04-12T09:55:27.260Z,43.00
2018-04-12T09:57:53.368Z,43.00
2018-04-12T10:00:25.490Z,42.03
2018-04-12T10:02:55.592Z,40.37
2018-04-12T10:05:27.622Z,43.17
2018-04-12T10:07:54.208Z,42.20
2018-04-12T10:10:20.236Z,44.57
2018-04-12T10:12:46.261Z,43.83
2018-04-12T10:15:12.270Z,42.67
2018-04-12T10:17:38.360Z,42.93
2018-04-12T10:20:04.341Z,41.13
2018-04-12T10:22:30.401Z,42.10
2018-04-12T10:24:56.429Z,43.13
2018-04-12T10:27:22.458Z,42.40
2018-04-12T10:29:48.602Z,43.90
2018-04-12T10:32:14.639Z,42.47
2018-04-12T10:34:40.671Z,42.97
2018-04-12T10:37:06.873Z,43.25
2018-04-12T10:39:32.903Z,44.00
2018-04-12T10:41:58.941Z,42.10
2018-04-12T10:44:25.038Z,42.27
2018-04-12T10:46:51.108Z,44.85
2018-04-12T10:49:17.140Z,42.63
2018-04-12T10:51:43.354Z,43.47
2018-04-12T10:54:09.459Z,43.37
2018-04-12T10:56:35.603Z,42.87
2018-04-12T10:59:01.651Z,41.63
2018-04-12T11:01:27.747Z,45.30
2018-04-12T11:03:53.856Z,41.30
2018-04-12T11:06:20.556Z,41.60
2018-04-12T11:08:46.721Z,39.67
2018-04-12T11:11:12.745Z,40.50
2018-04-12T11:13:38.856Z,39.67
2018-04-12T11:16:04.926Z,39.57
2018-04-12T11:18:31.070Z,41.37
2018-04-12T11:20:57.059Z,40.20
2018-04-12T11:23:23.196Z,39.03
2018-04-12T11:25:49.279Z,39.53
2018-04-12T11:28:15.303Z,40.00
2018-04-12T11:30:41.311Z,39.63
2018-04-12T11:33:07.675Z,38.77
2018-04-12T11:35:33.797Z,40.20
2018-04-12T11:37:59.851Z,38.07
2018-04-12T11:40:26.007Z,40.07
2018-04-12T11:42:52.146Z,39.97
2018-04-12T11:45:18.232Z,39.13
2018-04-12T11:47:44.340Z,40.20
2018-04-12T11:50:10.405Z,40.27
2018-04-12T11:52:36.582Z,38.83
2018-04-12T11:55:02.728Z,38.90
2018-04-12T11:57:28.726Z,39.67
2018-04-12T11:59:54.733Z,40.20
2018-04-12T12:02:20.772Z,37.97
2018-04-12T12:04:46.794Z,40.30
2018-04-12T12:07:12.872Z,39.17
2018-04-12T12:09:38.909Z,39.00
2018-04-12T12:12:04.915Z,40.67
2018-04-12T12:14:30.998Z,43.07
2018-04-12T12:16:57.065Z,41.73
2018-04-12T12:19:23.158Z,43.17
2018-04-12T12:21:49.353Z,41.77
2018-04-12T12:24:15.445Z,41.17
2018-04-12T12:26:41.664Z,42.13
2018-04-12T12:29:07.673Z,44.03
2018-04-12T12:31:33.720Z,44.37
2018-04-12T12:33:59.877Z,43.50
2018-04-12T12:36:26.070Z,43.03
2018-04-12T12:38:52.138Z,43.03
2018-04-12T12:41:18.153Z,43.10
2018-04-12T12:43:44.316Z,44.10
2018-04-12T12:46:10.346Z,43.77
2018-04-12T12:48:36.362Z,44.60
2018-04-12T12:51:02.392Z,43.33
2018-04-12T12:53:28.414Z,43.10
2018-04-12T12:55:54.491Z,43.80
2018-04-12T12:58:20.506Z,46.07
2018-04-12T13:00:46.553Z,44.90
2018-04-12T13:03:12.825Z,43.67
2018-04-12T13:05:38.948Z,44.17
2018-04-12T13:08:05.010Z,44.20
2018-04-12T13:10:31.113Z,43.87
2018-04-12T13:12:57.206Z,44.43
2018-04-12T13:15:23.941Z,41.83
2018-04-12T13:17:50.065Z,43.80
2018-04-12T13:20:16.117Z,42.77
2018-04-12T13:22:42.153Z,46.30
2018-04-12T13:25:08.211Z,44.90
2018-04-12T13:27:34.281Z,44.33
2018-04-12T13:30:00.316Z,46.87
2018-04-12T13:32:26.409Z,46.93
2018-04-12T13:34:52.484Z,45.23
2018-04-12T13:37:18.750Z,50.00
2018-04-12T13:39:44.818Z,47.50
2018-04-12T13:42:10.905Z,47.97
2018-04-12T13:44:36.953Z,48.13
2018-04-12T13:47:02.997Z,47.37
2018-04-12T13:49:29.022Z,48.53
2018-04-12T13:51:55.108Z,49.50
2018-04-12T13:54:21.196Z,50.23
2018-04-12T13:56:47.275Z,48.67
2018-04-12T13:59:14.305Z,48.37
2018-04-12T14:01:40.438Z,50.00
2018-04-12T14:04:06.449Z,52.10
2018-04-12T14:06:32.588Z,51.47
2018-04-12T14:08:58.600Z,50.60
2018-04-12T14:11:24.680Z,52.47
2018-04-12T14:13:50.733Z,52.43
2018-04-12T14:16:16.827Z,53.00
2018-04-12T14:18:42.848Z,50.37
2018-04-12T14:21:08.894Z,51.57
2018-04-12T14:23:35.133Z,53.60
2018-04-12T14:26:01.361Z,51.13
2018-04-12T14:28:27.392Z,52.30
2018-04-12T14:30:53.494Z,52.33
2018-04-12T14:33:19.538Z,55.43
2018-04-12T14:35:45.753Z,53.40
2018-04-12T14:38:11.968Z,51.43
2018-04-12T14:40:37.981Z,52.27
2018-04-12T14:43:04.025Z,50.83
2018-04-12T14:45:30.081Z,52.70
2018-04-12T14:47:56.130Z,52.13
2018-04-12T14:50:22.199Z,50.27
2018-04-12T14:52:48.241Z,50.47
2018-04-12T14:55:14.300Z,50.27
2018-04-12T14:57:40.418Z,51.10
2018-04-12T15:00:06.438Z,51.27
2018-04-12T15:02:32.675Z,48.53
2018-04-12T15:04:59.463Z,50.97
2018-04-12T15:07:25.593Z,48.67
2018-04-12T15:09:51.722Z,47.47
2018-04-12T15:12:17.760Z,45.50
2018-04-12T15:14:43.808Z,45.87
2018-04-12T15:17:10.020Z,43.67
2018-04-12T15:19:36.269Z,45.80
2018-04-12T15:22:02.346Z,44.93
2018-04-12T15:24:28.381Z,43.63
2018-04-12T15:26:54.470Z,44.17
2018-04-12T15:29:20.606Z,43.47
2018-04-12T15:31:46.657Z,44.10
2018-04-12T15:34:12.753Z,44.63
2018-04-12T15:36:38.806Z,44.03
2018-04-12T15:39:05.925Z,43.43
2018-04-12T15:41:32.158Z,42.57
2018-04-12T15:43:58.202Z,41.47
2018-04-12T15:46:24.288Z,40.93
2018-04-12T15:48:50.386Z,40.63
2018-04-12T15:51:23.366Z,41.30
2018-04-12T15:53:49.372Z,39.10
2018-04-12T15:56:15.540Z,38.13
2018-04-12T15:58:41.758Z,40.63
2018-04-12T16:01:08.336Z,42.60
2018-04-12T16:03:34.430Z,41.13
2018-04-12T16:06:00.509Z,40.90
2018-04-12T16:08:26.560Z,39.70
2018-04-12T16:10:52.595Z,38.73
2018-04-12T16:13:18.631Z,39.87
2018-04-12T16:15:44.741Z,40.10
2018-04-12T16:18:10.795Z,39.27
2018-04-12T16:20:36.862Z,40.27
2018-04-12T16:23:02.940Z,39.97
2018-04-12T16:25:29.017Z,38.93
2018-04-12T16:27:55.165Z,40.17
2018-04-12T16:30:21.216Z,38.03
2018-04-12T16:32:47.271Z,39.83
2018-04-12T16:35:13.299Z,38.93
2018-04-12T16:37:39.377Z,38.87
2018-04-12T16:40:05.394Z,39.13
2018-04-12T16:42:31.484Z,39.90
2018-04-12T16:44:57.583Z,38.80
2018-04-12T16:47:23.669Z,39.67
2018-04-12T16:49:49.841Z,39.43
2018-04-12T16:52:15.944Z,38.73
2018-04-12T16:54:41.995Z,39.03
2018-04-12T16:57:08.120Z,40.13
2018-04-12T16:59:34.247Z,39.67
2018-04-12T17:02:00.267Z,38.87
2018-04-12T17:04:26.294Z,40.17
2018-04-12T17:06:52.453Z,39.60
2018-04-12T17:09:18.467Z,39.87
2018-04-12T17:11:44.508Z,39.63
2018-04-12T17:14:10.574Z,38.23
2018-04-12T17:16:36.706Z,38.10
2018-04-12T17:19:02.712Z,39.33
2018-04-12T17:21:28.772Z,39.20
2018-04-12T17:23:54.812Z,39.17
2018-04-12T17:26:20.897Z,37.63
2018-04-12T17:28:46.932Z,39.07
2018-04-12T17:31:12.984Z,37.27
2018-04-12T17:33:39.225Z,39.73
2018-04-12T17:36:05.276Z,39.10
2018-04-12T17:38:31.310Z,39.83
2018-04-12T17:40:57.437Z,40.20
2018-04-12T17:43:23.573Z,38.10
2018-04-12T17:45:49.737Z,40.80
2018-04-12T17:48:15.784Z,38.87
2018-04-12T17:50:41.875Z,38.10
2018-04-12T17:53:15.600Z,38.67
2018-04-12T17:55:41.744Z,38.43
2018-04-12T17:58:07.769Z,41.23
2018-04-12T18:00:33.898Z,38.97
2018-04-12T18:03:00.945Z,40.37
2018-04-12T18:05:27.034Z,39.83
2018-04-12T18:07:53.221Z,39.70
2018-04-12T18:10:19.288Z,41.00
2018-04-12T18:12:45.373Z,41.43
2018-04-12T18:15:11.546Z,39.60
2018-04-12T18:17:37.613Z,42.03
2018-04-12T18:20:03.711Z,41.90
2018-04-12T18:22:29.722Z,41.97
2018-04-12T18:24:55.835Z,42.47
2018-04-12T18:27:22.028Z,43.10
2018-04-12T18:29:48.201Z,42.33
2018-04-12T18:32:14.275Z,43.37
2018-04-12T18:34:40.332Z,42.73
2018-04-12T18:37:06.419Z,42.17
2018-04-12T18:39:32.629Z,42.30
2018-04-12T18:41:58.715Z,41.30
2018-04-12T18:44:24.916Z,44.97
2018-04-12T18:46:50.948Z,44.13
2018-04-12T18:49:17.020Z,44.13
2018-04-12T18:51:43.073Z,43.43
2018-04-12T18:54:09.203Z,45.63
2018-04-12T18:56:35.393Z,45.70
2018-04-12T18:59:01.497Z,43.67
2018-04-12T19:01:27.780Z,47.43
2018-04-12T19:03:53.864Z,46.87
2018-04-12T19:06:20.038Z,43.33
2018-04-12T19:08:46.225Z,43.90
2018-04-12T19:11:12.349Z,46.90
2018-04-12T19:13:38.397Z,45.40
2018-04-12T19:16:04.483Z,46.27
2018-04-12T19:18:30.575Z,44.93
2018-04-12T19:20:56.575Z,47.43
2018-04-12T19:23:22.611Z,46.80
2018-04-12T19:25:48.703Z,44.53
2018-04-12T19:28:14.772Z,45.30
2018-04-12T19:30:40.805Z,44.17
2018-04-12T19:33:09.511Z,46.00
2018-04-12T19:35:35.612Z,48.63
2018-04-12T19:38:01.693Z,46.70
2018-04-12T19:40:27.936Z,47.80
2018-04-12T19:42:54.088Z,48.00
2018-04-12T19:45:20.211Z,47.27
2018-04-12T19:47:46.269Z,47.80
2018-04-12T19:50:12.364Z,47.23
2018-04-12T19:52:38.571Z,43.90
2018-04-12T19:55:04.723Z,48.27
2018-04-12T19:57:30.774Z,47.80
2018-04-12T19:59:56.823Z,47.43
2018-04-12T20:02:22.904Z,46.40
2018-04-12T20:04:48.989Z,46.30
2018-04-12T20:07:15.077Z,47.35
2018-04-12T20:09:41.191Z,47.13
2018-04-12T20:12:07.225Z,45.67
2018-04-12T20:14:33.330Z,47.00
2018-04-12T20:16:59.373Z,46.95
2018-04-12T20:19:26.230Z,48.87
2018-04-12T20:21:52.311Z,47.07
2018-04-12T20:24:18.395Z,48.92
2018-04-12T20:26:44.494Z,47.47
2018-04-12T20:29:10.572Z,48.43
2018-04-12T20:31:36.681Z,48.60
2018-04-12T20:34:02.804Z,47.88
2018-04-12T20:36:28.896Z,47.80
2018-04-12T20:38:55.002Z,48.10
2018-04-12T20:41:21.104Z,45.93
2018-04-12T20:43:47.279Z,48.60
2018-04-12T20:46:13.427Z,47.67
2018-04-12T20:48:39.428Z,47.62
2018-04-12T20:51:05.547Z,48.58
2018-04-12T20:53:31.677Z,48.35
2018-04-12T20:55:57.869Z,50.00
2018-04-12T20:58:23.996Z,52.35
2018-04-12T21:00:50.068Z,49.50
2018-04-12T21:03:16.154Z,52.13
2018-04-12T21:05:42.283Z,53.37
2018-04-12T21:08:08.302Z,51.67
2018-04-12T21:10:34.313Z,50.55
2018-04-12T21:13:00.407Z,50.95
2018-04-12T21:15:26.885Z,50.47
2018-04-12T21:17:52.980Z,51.67
2018-04-12T21:20:19.009Z,51.25
2018-04-12T21:22:45.075Z,49.37
2018-04-12T21:25:11.146Z,50.40
2018-04-12T21:27:37.230Z,49.53
2018-04-12T21:30:03.293Z,51.80
2018-04-12T21:32:30.156Z,50.90
2018-04-12T21:34:56.203Z,53.58
2018-04-12T21:37:22.377Z,50.17
2018-04-12T21:39:48.376Z,49.42
2018-04-12T21:42:14.393Z,50.12
2018-04-12T21:44:40.496Z,47.85
2018-04-12T21:47:06.544Z,49.13
2018-04-12T21:49:32.652Z,48.13
2018-04-12T21:51:58.661Z,46.60
2018-04-12T21:54:24.705Z,49.33
2018-04-12T21:56:50.954Z,46.93
2018-04-12T21:59:17.026Z,47.97
2018-04-12T22:01:43.112Z,49.92
2018-04-12T22:04:09.156Z,48.17
2018-04-12T22:06:35.181Z,47.30
2018-04-12T22:09:01.224Z,48.95
2018-04-12T22:11:27.607Z,47.92
2018-04-12T22:13:53.652Z,46.67
2018-04-12T22:16:19.946Z,48.33
2018-04-12T22:18:46.029Z,49.88
2018-04-12T22:21:12.071Z,46.37
2018-04-12T22:23:38.121Z,48.85
2018-04-12T22:26:04.812Z,48.15
2018-04-12T22:28:31.147Z,48.60
2018-04-12T22:30:57.176Z,46.97
2018-04-12T22:33:23.195Z,48.15
2018-04-12T22:35:49.314Z,47.60
2018-04-12T22:38:15.401Z,47.28
2018-04-12T22:40:41.436Z,50.67
2018-04-12T22:43:07.552Z,50.90
2018-04-12T22:45:33.612Z,49.28
2018-04-12T22:47:59.634Z,52.35
2018-04-12T22:50:25.675Z,49.42
2018-04-12T22:52:51.702Z,49.97
2018-04-12T22:55:17.930Z,51.67
2018-04-12T22:57:43.968Z,48.92
2018-04-12T23:00:10.144Z,49.58
2018-04-12T23:02:36.175Z,49.92
2018-04-12T23:05:02.209Z,52.55
2018-04-12T23:07:28.397Z,50.60
2018-04-12T23:09:54.427Z,49.90
2018-04-12T23:12:20.473Z,50.03
2018-04-12T23:14:46.504Z,50.45
2018-04-12T23:17:12.533Z,49.40
2018-04-12T23:19:38.530Z,49.72
2018-04-12T23:22:04.571Z,49.22
2018-04-12T23:24:30.557Z,49.85
2018-04-12T23:26:56.668Z,48.33
2018-04-12T23:29:22.654Z,49.83
2018-04-12T23:31:48.682Z,53.47
2018-04-12T23:34:14.776Z,50.45
2018-04-12T23:36:40.875Z,52.75
2018-04-12T23:39:06.860Z,49.70
2018-04-12T23:41:32.874Z,49.57
2018-04-12T23:43:58.915Z,50.45
2018-04-12T23:46:25.021Z,49.05
2018-04-12T23:48:51.058Z,47.72
2018-04-12T23:51:17.075Z,52.30
2018-04-12T23:53:43.979Z,49.45
2018-04-12T23:56:10.107Z,50.85
2018-04-12T23:58:36.216Z,52.10
